Time;durP1;ratioP1;P1;durP2;ratioP2;P2;SDS_P1;SDS_P2;PMS_P1;PMS_P2;Temp;Humidity;BMP_temperature;BMP_pressure;BME280_temperature;BME280_humidity;BME280_pressure;Samples;Min_cycle;Max_cycle;Signal;HPM_P1;HPM_P2
2022/04/20 00:00:34;;;;;;;5.73;5.33;;;9.40;61.30;;;;;;5034641;28;20494;-67
2022/04/20 00:03:01;;;;;;;4.93;4.50;;;9.30;62.50;;;;;;5034767;28;20524;-68
2022/04/20 00:05:26;;;;;;;6.53;5.30;;;9.30;64.20;;;;;;5034814;28;20475;-67
2022/04/20 00:07:52;;;;;;;6.87;6.13;;;9.20;66.20;;;;;;5034680;28;20417;-68
2022/04/20 00:10:18;;;;;;;6.70;5.13;;;9.20;67.50;;;;;;5034268;28;20185;-68
2022/04/20 00:12:43;;;;;;;5.30;4.90;;;9.10;68.80;;;;;;5034697;28;20198;-67
2022/04/20 00:15:09;;;;;;;6.27;4.90;;;9.00;70.70;;;;;;5034623;28;20572;-68
2022/04/20 00:17:35;;;;;;;8.93;5.70;;;9.00;72.30;;;;;;5033882;28;20170;-68
2022/04/20 00:20:00;;;;;;;9.50;6.47;;;8.90;74.10;;;;;;5034279;28;20174;-68
2022/04/20 00:22:26;;;;;;;7.23;6.70;;;8.90;75.40;;;;;;5034342;28;20190;-68
2022/04/20 00:24:51;;;;;;;6.00;5.57;;;8.90;76.70;;;;;;5034306;28;20428;-67
2022/04/20 00:27:17;;;;;;;5.80;5.20;;;9.00;77.70;;;;;;5034382;28;20170;-67
2022/04/20 00:29:43;;;;;;;5.77;5.30;;;8.90;78.90;;;;;;5034211;28;20167;-67
2022/04/20 00:32:08;;;;;;;6.03;5.47;;;8.90;80.20;;;;;;5034215;28;20186;-68
2022/04/20 00:34:34;;;;;;;5.77;5.23;;;8.90;81.40;;;;;;5034436;28;20206;-68
2022/04/20 00:37:00;;;;;;;9.03;6.73;;;8.90;83.00;;;;;;5032789;28;20183;-67
2022/04/20 00:39:25;;;;;;;6.80;6.20;;;9.00;83.90;;;;;;5033792;28;20170;-67
2022/04/20 00:41:52;;;;;;;6.77;6.17;;;9.00;84.70;;;;;;5033969;28;20656;-67
2022/04/20 00:44:19;;;;;;;6.80;6.20;;;8.90;86.20;;;;;;5032851;28;20174;-68
2022/04/20 00:46:46;;;;;;;7.00;6.43;;;8.80;87.60;;;;;;5034140;28;20421;-67
2022/04/20 00:49:13;;;;;;;7.93;6.10;;;8.80;89.30;;;;;;5033645;28;20419;-68
2022/04/20 00:51:50;;;;;;;6.93;6.43;;;8.70;90.20;;;;;;5033785;28;20437;-67
2022/04/20 00:54:16;;;;;;;7.10;6.40;;;8.60;91.20;;;;;;5033667;28;20466;-68
2022/04/20 00:56:41;;;;;;;5.93;5.40;;;8.50;92.10;;;;;;5033772;28;20973;-67
2022/04/20 00:59:07;;;;;;;6.70;6.17;;;8.50;93.00;;;;;;5033527;28;20542;-68
2022/04/20 01:01:33;;;;;;;6.70;6.17;;;8.60;93.30;;;;;;5033623;28;20194;-68
2022/04/20 01:03:58;;;;;;;6.83;6.23;;;8.60;93.50;;;;;;5033697;28;20209;-67
2022/04/20 01:06:24;;;;;;;6.93;6.33;;;8.60;93.90;;;;;;5033536;28;20181;-67
2022/04/20 01:08:49;;;;;;;7.97;6.80;;;8.60;94.10;;;;;;5033219;28;20175;-67
2022/04/20 01:11:15;;;;;;;6.70;6.00;;;8.60;94.60;;;;;;5033501;28;20170;-67
2022/04/20 01:13:40;;;;;;;7.13;6.27;;;8.60;95.00;;;;;;5033392;28;20198;-68
2022/04/20 01:16:06;;;;;;;6.63;6.03;;;8.60;95.20;;;;;;5033392;28;20187;-67
2022/04/20 01:18:31;;;;;;;7.87;6.10;;;8.50;95.20;;;;;;5033029;28;20167;-67
2022/04/20 01:20:57;;;;;;;7.20;6.10;;;8.60;95.30;;;;;;5033309;28;20185;-68
2022/04/20 01:23:22;;;;;;;8.40;6.03;;;8.60;95.90;;;;;;5033251;28;20683;-69
2022/04/20 01:25:48;;;;;;;6.90;6.20;;;8.60;95.90;;;;;;5033703;28;20204;-70
2022/04/20 01:28:15;;;;;;;6.13;5.53;;;8.50;97.00;;;;;;5033152;28;20173;-68
2022/04/20 01:30:41;;;;;;;6.30;5.80;;;8.40;97.80;;;;;;5032982;28;20181;-68
2022/04/20 01:33:06;;;;;;;6.10;5.70;;;8.30;98.70;;;;;;5033087;28;20461;-69
2022/04/20 01:35:32;;;;;;;7.20;6.07;;;8.30;99.90;;;;;;5033198;28;20180;-69
2022/04/20 01:37:57;;;;;;;5.73;5.33;;;8.20;99.90;;;;;;5032957;28;20269;-68
2022/04/20 01:40:23;;;;;;;13.53;6.00;;;8.10;99.90;;;;;;5032829;28;20178;-69
2022/04/20 01:42:49;;;;;;;6.57;5.80;;;8.00;99.90;;;;;;5032877;28;20582;-68
2022/04/20 01:45:14;;;;;;;9.07;6.30;;;8.00;99.90;;;;;;5032864;28;20236;-68
2022/04/20 01:47:40;;;;;;;6.90;6.20;;;8.10;99.90;;;;;;5032868;28;20178;-68
2022/04/20 01:50:06;;;;;;;6.17;5.57;;;8.10;99.90;;;;;;5032468;28;20186;-68
2022/04/20 01:52:32;;;;;;;6.97;5.90;;;8.10;99.90;;;;;;5032516;28;20577;-68
2022/04/20 01:54:58;;;;;;;5.70;5.30;;;8.00;99.90;;;;;;5032688;28;20417;-68
2022/04/20 01:57:23;;;;;;;6.70;6.10;;;8.00;99.90;;;;;;5033222;28;20922;-67
2022/04/20 01:59:49;;;;;;;9.03;6.27;;;8.00;99.90;;;;;;5032385;28;20434;-67
2022/04/20 02:04:59;;;;;;;6.60;6.10;;;7.90;99.90;;;;;;5032518;28;20200;-67
2022/04/20 02:07:24;;;;;;;7.23;6.53;;;8.10;99.90;;;;;;5032890;28;20417;-68
2022/04/20 02:09:50;;;;;;;7.87;6.20;;;7.90;99.90;;;;;;5035810;28;20416;-70
2022/04/20 02:12:15;;;;;;;6.47;5.87;;;7.90;99.90;;;;;;5034807;28;20603;-67
2022/04/20 02:14:41;;;;;;;5.77;5.33;;;7.80;99.90;;;;;;5032335;28;20237;-67
2022/04/20 02:17:06;;;;;;;6.10;5.67;;;7.80;99.90;;;;;;5032341;28;20514;-67
2022/04/20 02:19:32;;;;;;;6.00;5.50;;;7.70;99.90;;;;;;5031905;28;20212;-67
2022/04/20 02:21:57;;;;;;;5.90;5.50;;;7.70;99.90;;;;;;5032177;28;20194;-68
2022/04/20 02:24:23;;;;;;;10.53;6.10;;;7.60;99.90;;;;;;5032261;28;20181;-67
2022/04/20 02:26:48;;;;;;;6.43;5.93;;;7.60;99.90;;;;;;5032145;28;20213;-68
2022/04/20 02:29:14;;;;;;;5.97;5.37;;;7.50;99.90;;;;;;5031841;28;20202;-68
2022/04/20 02:31:39;;;;;;;6.43;5.60;;;7.50;99.90;;;;;;5032131;28;20613;-67
2022/04/20 02:34:05;;;;;;;7.50;5.77;;;7.40;99.90;;;;;;5030583;28;20224;-67
2022/04/20 02:36:32;;;;;;;8.83;6.70;;;7.40;99.90;;;;;;5032190;28;20330;-67
2022/04/20 02:38:57;;;;;;;5.97;5.40;;;7.30;99.90;;;;;;5031790;28;20643;-67
2022/04/20 02:41:23;;;;;;;6.60;6.00;;;7.30;99.90;;;;;;5031608;28;20413;-68
2022/04/20 02:43:49;;;;;;;6.43;5.93;;;7.20;99.90;;;;;;5032168;28;20249;-67
2022/04/20 02:46:15;;;;;;;6.93;6.30;;;7.20;99.90;;;;;;5032054;28;20196;-67
2022/04/20 02:48:41;;;;;;;6.60;6.00;;;7.20;99.90;;;;;;5030222;28;20934;-67
2022/04/20 02:51:06;;;;;;;7.40;6.23;;;7.10;99.90;;;;;;5030705;28;20261;-67
2022/04/20 02:53:32;;;;;;;6.40;5.70;;;7.10;99.90;;;;;;5031931;28;20209;-69
2022/04/20 02:55:57;;;;;;;6.60;6.20;;;7.00;99.90;;;;;;5030757;28;20276;-68
2022/04/20 02:58:23;;;;;;;9.50;6.63;;;7.00;99.90;;;;;;5031601;28;20228;-67
2022/04/20 03:00:48;;;;;;;6.70;6.03;;;6.90;99.90;;;;;;5030514;28;20178;-67
2022/04/20 03:03:14;;;;;;;8.97;6.97;;;6.80;99.90;;;;;;5038267;28;20211;-67
2022/04/20 03:05:40;;;;;;;6.87;6.23;;;6.80;99.90;;;;;;5031710;28;20218;-67
2022/04/20 03:08:06;;;;;;;7.13;6.30;;;6.80;99.90;;;;;;5030717;28;20469;-67
2022/04/20 03:10:31;;;;;;;6.93;6.43;;;6.70;99.90;;;;;;5032686;28;20174;-68
2022/04/20 03:12:57;;;;;;;6.70;6.17;;;6.70;99.90;;;;;;5035890;28;20581;-67
2022/04/20 03:15:22;;;;;;;6.93;6.30;;;6.70;99.90;;;;;;5047473;28;20253;-67
2022/04/20 03:17:47;;;;;;;7.20;6.50;;;6.70;99.90;;;;;;5032171;28;20277;-67
2022/04/20 03:20:13;;;;;;;6.17;5.70;;;6.70;99.90;;;;;;5031676;28;20245;-67
2022/04/20 03:22:39;;;;;;;5.83;5.23;;;6.60;99.90;;;;;;5038173;28;20232;-67
2022/04/20 03:25:05;;;;;;;6.70;6.10;;;6.60;99.90;;;;;;5037809;28;20174;-68
2022/04/20 03:27:30;;;;;;;7.47;6.77;;;6.50;99.90;;;;;;5030248;28;20471;-68
2022/04/20 03:29:56;;;;;;;7.73;6.10;;;6.50;99.90;;;;;;5031000;28;20425;-67
2022/04/20 03:32:22;;;;;;;8.20;7.50;;;6.50;99.90;;;;;;5031566;28;20202;-67
2022/04/20 03:34:48;;;;;;;6.77;6.10;;;6.40;99.90;;;;;;5030813;28;20198;-68
2022/04/20 03:37:13;;;;;;;6.37;5.87;;;6.40;99.90;;;;;;5037917;28;20240;-67
2022/04/20 03:39:40;;;;;;;7.43;6.77;;;6.30;99.90;;;;;;5031183;28;20175;-67
2022/04/20 03:42:06;;;;;;;7.17;6.47;;;6.20;99.90;;;;;;5036780;28;20202;-67
2022/04/20 03:44:32;;;;;;;7.50;6.70;;;6.10;99.90;;;;;;5030061;28;20444;-67
2022/04/20 03:46:57;;;;;;;7.53;6.70;;;6.00;99.90;;;;;;5031354;28;20432;-67
2022/04/20 03:49:23;;;;;;;8.10;6.20;;;6.00;99.90;;;;;;5029857;28;20190;-67
2022/04/20 03:51:48;;;;;;;6.50;5.90;;;6.00;99.90;;;;;;5038374;28;20284;-67
2022/04/20 03:54:14;;;;;;;7.40;6.77;;;6.10;99.90;;;;;;5037682;28;20210;-67
2022/04/20 03:59:24;;;;;;;6.07;5.67;;;6.00;99.90;;;;;;5034964;28;20232;-67
2022/04/20 04:01:51;;;;;;;10.03;7.70;;;5.80;99.90;;;;;;5034801;28;20428;-68
2022/04/20 04:04:17;;;;;;;8.80;6.50;;;5.70;99.90;;;;;;5033568;28;20261;-67
2022/04/20 04:06:43;;;;;;;7.07;6.47;;;5.60;99.90;;;;;;5034764;28;20433;-67
2022/04/20 04:09:08;;;;;;;7.20;6.60;;;5.60;99.90;;;;;;5040766;28;20494;-67
2022/04/20 04:11:34;;;;;;;7.50;6.80;;;5.50;99.90;;;;;;5034754;28;20255;-67
2022/04/20 04:14:00;;;;;;;8.03;6.67;;;5.60;99.90;;;;;;5043233;28;20656;-67
2022/04/20 04:16:25;;;;;;;5.97;5.50;;;5.60;99.90;;;;;;5038142;28;20170;-67
2022/04/20 04:18:51;;;;;;;6.67;6.07;;;5.60;99.90;;;;;;5035572;28;20439;-68
2022/04/20 04:21:17;;;;;;;7.17;6.57;;;5.70;99.90;;;;;;5038662;28;20162;-68
2022/04/20 04:23:42;;;;;;;8.40;7.10;;;5.80;99.90;;;;;;5040785;28;20181;-67
2022/04/20 04:26:08;;;;;;;6.77;6.03;;;5.80;99.90;;;;;;5036322;28;20436;-68
2022/04/20 04:28:34;;;;;;;6.80;6.00;;;5.80;99.90;;;;;;5035368;28;20675;-68
2022/04/20 04:30:59;;;;;;;7.20;5.50;;;5.80;99.90;;;;;;5034945;28;20571;-68
2022/04/20 04:33:25;;;;;;;6.77;6.03;;;5.80;99.90;;;;;;5033916;28;20236;-68
2022/04/20 04:35:50;;;;;;;7.57;6.80;;;5.90;99.90;;;;;;5037327;28;20189;-69
2022/04/20 04:38:16;;;;;;;6.60;6.10;;;5.80;99.90;;;;;;5034055;28;20226;-67
2022/04/20 04:40:42;;;;;;;9.00;7.27;;;5.80;99.90;;;;;;5034465;28;20174;-68
2022/04/20 04:43:07;;;;;;;7.63;6.87;;;5.70;99.90;;;;;;5034117;28;20608;-68
2022/04/20 04:51:12;;;;;;;6.30;5.80;;;5.60;99.90;;;;;;5029523;28;20440;-69
2022/04/20 04:53:37;;;;;;;6.10;5.53;;;5.70;99.90;;;;;;5034461;28;20473;-68
2022/04/20 04:56:03;;;;;;;6.97;6.37;;;5.80;99.90;;;;;;5039503;28;20517;-68
2022/04/20 04:58:29;;;;;;;7.53;6.80;;;6.00;99.90;;;;;;5036514;28;20830;-68
2022/04/20 05:00:54;;;;;;;7.83;7.13;;;6.10;99.90;;;;;;5032251;28;20183;-68
2022/04/20 05:03:20;;;;;;;6.87;6.27;;;6.20;99.90;;;;;;5033335;28;20256;-67
2022/04/20 05:05:46;;;;;;;11.30;8.07;;;6.30;99.90;;;;;;5038109;28;20648;-67
2022/04/20 05:08:12;;;;;;;6.90;6.30;;;6.30;99.90;;;;;;5037269;28;20182;-68
2022/04/20 05:10:38;;;;;;;9.37;8.37;;;6.30;99.90;;;;;;5033329;28;20466;-69
2022/04/20 05:13:04;;;;;;;7.77;7.07;;;6.50;99.90;;;;;;5032509;28;20569;-67
2022/04/20 05:15:30;;;;;;;11.17;7.13;;;6.60;99.90;;;;;;5037478;28;20211;-68
2022/04/20 05:17:55;;;;;;;8.70;7.80;;;6.80;99.90;;;;;;5040123;28;20496;-68
2022/04/20 05:20:21;;;;;;;7.90;7.20;;;6.90;99.90;;;;;;5038416;28;20575;-68
2022/04/20 05:22:47;;;;;;;8.67;7.77;;;7.00;99.90;;;;;;5023115;28;20197;-68
2022/04/20 05:25:12;;;;;;;10.03;6.80;;;7.20;99.90;;;;;;5037647;28;20590;-68
2022/04/20 05:27:38;;;;;;;6.30;5.80;;;7.30;99.90;;;;;;5041781;28;20439;-68
2022/04/20 05:30:06;;;;;;;7.17;5.70;;;7.50;99.90;;;;;;5030478;28;20274;-68
2022/04/20 05:32:31;;;;;;;6.07;5.33;;;7.50;99.90;;;;;;5032862;28;20195;-68
2022/04/20 05:34:57;;;;;;;7.93;7.10;;;7.70;99.90;;;;;;5032908;28;20834;-68
2022/04/20 05:42:52;;;;;;;7.77;7.17;;;8.20;99.90;;;;;;5024040;28;20475;-67
2022/04/20 05:45:17;;;;;;;7.90;7.17;;;8.30;99.90;;;;;;5032894;28;20444;-67
2022/04/20 05:47:43;;;;;;;7.07;6.47;;;8.40;99.90;;;;;;5039458;28;20652;-68
2022/04/20 05:50:09;;;;;;;9.40;7.33;;;8.50;99.90;;;;;;5033349;28;20181;-68
2022/04/20 05:52:34;;;;;;;8.07;7.37;;;8.60;99.90;;;;;;5032421;28;20220;-68
2022/04/20 05:55:00;;;;;;;7.80;7.13;;;8.80;99.90;;;;;;5036262;28;20640;-68
2022/04/20 05:57:25;;;;;;;7.27;6.67;;;9.00;99.90;;;;;;5037455;28;20217;-69
2022/04/20 05:59:51;;;;;;;8.93;5.77;;;9.00;99.90;;;;;;5032240;28;20174;-68
2022/04/20 06:02:17;;;;;;;7.37;6.67;;;9.20;99.90;;;;;;5039117;28;20198;-68
2022/04/20 06:04:42;;;;;;;6.17;5.67;;;9.30;99.90;;;;;;5036095;28;20174;-69
2022/04/20 06:07:08;;;;;;;7.67;6.60;;;9.40;99.90;;;;;;5032296;28;20686;-68
2022/04/20 06:09:33;;;;;;;6.60;6.00;;;9.50;99.90;;;;;;5038759;28;20182;-68
2022/04/20 06:11:59;;;;;;;7.33;6.40;;;9.50;99.90;;;;;;5035772;28;20197;-69
2022/04/20 06:14:24;;;;;;;7.30;6.33;;;9.60;99.90;;;;;;5035158;28;20671;-68
2022/04/20 06:16:50;;;;;;;7.10;6.50;;;9.60;99.90;;;;;;5035427;28;20178;-68
2022/04/20 06:19:16;;;;;;;7.40;6.70;;;9.60;99.90;;;;;;5040062;28;20260;-68
2022/04/20 06:21:41;;;;;;;6.87;6.27;;;9.70;99.90;;;;;;5032848;28;20218;-68
2022/04/20 06:24:07;;;;;;;6.00;5.60;;;9.90;99.90;;;;;;5038648;28;20265;-68
2022/04/20 06:26:32;;;;;;;7.77;7.07;;;10.10;99.90;;;;;;5035811;28;20235;-68
2022/04/20 06:28:58;;;;;;;5.80;5.40;;;10.10;99.90;;;;;;5031885;28;20206;-69
2022/04/20 06:31:23;;;;;;;6.07;5.47;;;10.30;99.00;;;;;;5038672;28;20217;-67
2022/04/20 06:33:49;;;;;;;6.90;6.30;;;10.40;97.60;;;;;;5032862;28;20586;-68
2022/04/20 06:36:15;;;;;;;7.17;6.50;;;10.50;98.00;;;;;;5029004;28;20174;-70
2022/04/20 06:38:40;;;;;;;5.93;5.40;;;10.40;96.50;;;;;;4997793;28;20449;-69
2022/04/20 06:41:06;;;;;;;4.70;4.30;;;10.30;96.20;;;;;;5015005;28;20209;-67
2022/04/20 06:43:32;;;;;;;5.10;4.70;;;10.20;95.10;;;;;;5031217;28;20186;-68
2022/04/20 06:45:58;;;;;;;4.60;4.20;;;10.00;94.20;;;;;;5026020;28;20187;-68
2022/04/20 06:48:23;;;;;;;5.87;5.40;;;9.90;94.60;;;;;;5031205;28;20453;-66
2022/04/20 06:50:50;;;;;;;5.50;5.00;;;9.90;95.10;;;;;;5031748;28;20206;-68
2022/04/20 06:58:44;;;;;;;5.10;4.60;;;10.30;94.40;;;;;;5030616;28;20961;-68
2022/04/20 07:01:11;;;;;;;5.77;5.10;;;10.40;94.20;;;;;;5045258;28;20442;-67
2022/04/20 07:03:38;;;;;;;5.30;4.80;;;10.40;94.00;;;;;;5032924;28;20513;-67
2022/04/20 07:06:04;;;;;;;5.60;5.10;;;10.40;93.90;;;;;;5031744;28;20472;-69
2022/04/20 07:08:32;;;;;;;4.70;4.30;;;10.50;94.40;;;;;;5027560;28;20858;-69
2022/04/20 07:10:57;;;;;;;5.40;4.90;;;10.70;94.50;;;;;;5031384;28;20479;-68
2022/04/20 07:13:23;;;;;;;5.70;5.20;;;11.00;93.10;;;;;;5037262;28;20818;-68
2022/04/20 07:15:49;;;;;;;6.17;5.57;;;11.10;92.50;;;;;;5030597;28;20661;-68
2022/04/20 07:18:15;;;;;;;5.33;4.47;;;11.10;92.00;;;;;;5027672;28;20174;-68
2022/04/20 07:20:41;;;;;;;8.03;4.77;;;11.10;91.70;;;;;;5032824;28;20532;-68
2022/04/20 07:23:07;;;;;;;5.60;5.20;;;10.90;91.80;;;;;;5036173;28;20262;-68
2022/04/20 07:25:32;;;;;;;7.37;5.87;;;10.70;92.10;;;;;;5033310;28;20178;-68
2022/04/20 07:27:58;;;;;;;5.10;4.43;;;10.60;92.20;;;;;;5029002;28;20447;-68
2022/04/20 07:30:26;;;;;;;4.87;4.53;;;10.60;92.30;;;;;;5034597;28;20182;-68
2022/04/20 07:32:52;;;;;;;5.50;4.90;;;11.00;91.70;;;;;;5034992;28;20943;-69
2022/04/20 07:35:17;;;;;;;6.20;5.70;;;11.00;91.70;;;;;;5035193;28;20428;-68
2022/04/20 07:37:43;;;;;;;6.00;5.37;;;11.30;91.60;;;;;;5031632;28;20197;-68
2022/04/20 07:40:09;;;;;;;9.27;8.37;;;11.70;90.70;;;;;;5034920;28;20258;-68
2022/04/20 07:42:37;;;;;;;6.77;5.63;;;12.00;89.50;;;;;;5033582;28;20201;-68
2022/04/20 07:45:03;;;;;;;5.47;5.00;;;12.40;90.00;;;;;;5034406;28;20464;-68
2022/04/20 07:47:29;;;;;;;6.50;5.90;;;12.50;86.70;;;;;;5032696;28;20420;-69
2022/04/20 07:52:45;;;;;;;5.60;5.10;;;11.80;87.00;;;;;;5039278;28;20282;-68
2022/04/20 07:55:13;;;;;;;7.13;5.00;;;11.60;85.80;;;;;;5048544;28;20534;-68
2022/04/20 07:57:42;;;;;;;5.50;5.10;;;11.70;88.00;;;;;;5043145;28;20421;-69
2022/04/20 08:00:08;;;;;;;5.83;5.33;;;11.70;87.90;;;;;;5034432;28;20421;-69
2022/04/20 08:02:34;;;;;;;8.17;5.87;;;11.80;88.20;;;;;;5039676;28;20461;-69
2022/04/20 08:04:59;;;;;;;7.60;5.73;;;11.90;87.10;;;;;;5034492;28;20424;-69
2022/04/20 08:07:26;;;;;;;5.50;5.10;;;11.90;86.50;;;;;;5030946;28;20193;-69
2022/04/20 08:09:52;;;;;;;5.83;5.33;;;11.90;86.40;;;;;;5033060;28;20178;-69
2022/04/20 08:12:17;;;;;;;6.30;5.80;;;12.20;86.00;;;;;;5033490;28;20815;-69
2022/04/20 08:14:43;;;;;;;6.20;5.70;;;12.40;85.60;;;;;;5039874;28;20556;-69
2022/04/20 08:17:09;;;;;;;6.90;6.30;;;12.50;84.90;;;;;;5029879;28;20819;-69
2022/04/20 08:19:34;;;;;;;5.67;5.17;;;12.70;84.50;;;;;;5033858;28;20170;-69
2022/04/20 08:22:00;;;;;;;5.90;5.33;;;13.00;83.80;;;;;;5036552;28;20194;-69
2022/04/20 08:24:26;;;;;;;6.03;5.53;;;13.20;82.50;;;;;;5039510;28;20261;-69
2022/04/20 08:26:51;;;;;;;5.30;4.90;;;13.20;81.50;;;;;;5032015;28;20421;-69
2022/04/20 08:29:17;;;;;;;6.07;5.47;;;13.40;81.40;;;;;;5032251;28;20394;-69
2022/04/20 08:31:43;;;;;;;5.73;5.23;;;13.30;80.90;;;;;;5041008;28;20206;-69
2022/04/20 08:34:08;;;;;;;6.13;5.53;;;13.40;79.30;;;;;;5032006;28;20217;-69
2022/04/20 08:36:34;;;;;;;6.87;6.17;;;13.40;79.80;;;;;;5033781;28;20566;-68
2022/04/20 08:39:00;;;;;;;5.73;5.27;;;13.40;77.60;;;;;;5029416;28;20177;-68
2022/04/20 08:41:26;;;;;;;6.60;6.10;;;13.70;75.80;;;;;;5033793;28;20249;-69
2022/04/20 08:43:52;;;;;;;6.47;5.80;;;14.20;75.60;;;;;;5038948;28;20532;-68
2022/04/20 08:46:18;;;;;;;6.43;5.80;;;13.80;76.90;;;;;;5032657;28;20190;-68
2022/04/20 08:48:44;;;;;;;6.30;5.47;;;13.70;75.60;;;;;;5029635;28;20459;-68
2022/04/20 08:51:09;;;;;;;6.00;5.50;;;13.90;75.60;;;;;;5033457;28;20942;-68
2022/04/20 08:53:36;;;;;;;5.50;5.00;;;14.30;75.10;;;;;;5031252;28;20205;-68
2022/04/20 08:58:48;;;;;;;6.07;5.57;;;14.80;73.40;;;;;;5029739;28;20467;-68
2022/04/20 09:01:15;;;;;;;5.80;5.30;;;15.10;72.60;;;;;;5033629;28;20914;-69
2022/04/20 09:03:43;;;;;;;6.20;5.30;;;15.40;68.20;;;;;;5032470;28;20444;-69
2022/04/20 09:06:09;;;;;;;6.07;5.40;;;15.70;66.50;;;;;;5033329;28;20433;-69
2022/04/20 09:08:37;;;;;;;6.73;6.17;;;15.70;65.80;;;;;;5027747;28;20455;-69
2022/04/20 09:11:04;;;;;;;6.20;5.30;;;15.90;68.30;;;;;;5034179;28;20441;-69
2022/04/20 09:13:33;;;;;;;5.33;4.93;;;16.00;67.60;;;;;;5033309;28;20465;-69
2022/04/20 09:16:06;;;;;;;5.57;5.17;;;16.40;65.00;;;;;;5031509;28;20429;-69
2022/04/20 09:18:31;;;;;;;6.20;5.70;;;16.80;64.90;;;;;;5029158;28;20443;-69
2022/04/20 09:21:08;;;;;;;5.70;5.20;;;17.50;62.30;;;;;;5033239;28;20923;-69
2022/04/20 09:23:34;;;;;;;5.70;5.30;;;17.10;59.50;;;;;;5033437;28;20221;-69
2022/04/20 09:26:11;;;;;;;5.97;5.47;;;16.90;60.00;;;;;;5033205;28;20792;-69
2022/04/20 09:28:42;;;;;;;6.33;5.60;;;17.20;59.00;;;;;;5029224;28;20792;-69
2022/04/20 09:31:09;;;;;;;4.80;4.30;;;17.40;58.40;;;;;;5033104;28;20773;-69
2022/04/20 09:33:42;;;;;;;5.10;4.60;;;17.50;57.10;;;;;;5032989;28;20495;-69
2022/04/20 09:36:08;;;;;;;6.93;5.40;;;17.90;55.70;;;;;;5033095;28;20807;-69
2022/04/20 09:38:37;;;;;;;5.30;4.90;;;17.80;55.70;;;;;;5028849;28;20437;-69
2022/04/20 09:41:08;;;;;;;5.00;4.60;;;18.10;54.10;;;;;;5033322;28;20620;-69
2022/04/20 09:43:34;;;;;;;5.30;4.90;;;18.80;53.00;;;;;;5032644;28;20440;-69
2022/04/20 09:49:10;;;;;;;4.90;4.40;;;19.50;51.60;;;;;;5024137;28;20197;-69
2022/04/20 09:51:41;;;;;;;4.80;4.50;;;20.30;51.00;;;;;;5023031;28;20531;-69
2022/04/20 09:54:26;;;;;;;5.17;4.77;;;20.50;49.00;;;;;;5032138;28;20468;-69
2022/04/20 09:57:12;;;;;;;4.70;4.40;;;21.60;47.00;;;;;;5031036;28;20930;-69
2022/04/20 09:59:56;;;;;;;5.63;5.13;;;20.60;46.40;;;;;;5029344;28;20439;-69
2022/04/20 10:02:22;;;;;;;8.63;4.30;;;20.80;46.50;;;;;;5032446;28;20428;-69
2022/04/20 10:04:48;;;;;;;4.73;4.33;;;20.90;45.90;;;;;;5032782;28;20432;-69
2022/04/20 10:07:14;;;;;;;5.30;3.93;;;21.70;44.20;;;;;;5029312;28;20196;-69
2022/04/20 10:09:40;;;;;;;4.33;3.90;;;22.30;43.80;;;;;;5031440;28;20926;-70
2022/04/20 10:12:07;;;;;;;6.87;3.90;;;23.50;41.40;;;;;;5027161;28;20591;-70
2022/04/20 10:17:24;;;;;;;4.60;4.30;;;22.50;40.30;;;;;;5014343;28;20435;-70
2022/04/20 10:19:51;;;;;;;4.93;4.60;;;22.70;40.50;;;;;;5031506;28;20958;-67
2022/04/20 10:22:18;;;;;;;5.77;5.37;;;23.40;38.90;;;;;;5032257;28;20520;-70
2022/04/20 10:24:49;;;;;;;5.27;4.87;;;22.70;38.70;;;;;;5032124;28;20437;-69
2022/04/20 10:27:24;;;;;;;9.00;4.07;;;22.40;39.30;;;;;;5028887;28;20810;-71
2022/04/20 10:30:00;;;;;;;4.80;4.40;;;22.40;39.00;;;;;;5031287;28;20435;-70
2022/04/20 10:32:28;;;;;;;4.80;4.40;;;23.90;38.30;;;;;;5032067;28;20456;-70
2022/04/20 10:34:54;;;;;;;4.47;4.17;;;23.80;37.40;;;;;;5031912;28;20559;-70
2022/04/20 10:37:25;;;;;;;5.60;4.97;;;23.90;36.60;;;;;;5029163;28;20551;-67
2022/04/20 10:39:53;;;;;;;4.07;3.87;;;24.20;36.10;;;;;;5031220;28;20185;-70
2022/04/20 10:42:20;;;;;;;4.37;4.07;;;25.50;35.50;;;;;;5031779;28;20506;-66
2022/04/20 10:44:55;;;;;;;4.00;3.60;;;26.60;35.10;;;;;;5031879;28;20768;-67
2022/04/20 10:47:24;;;;;;;5.10;4.70;;;27.30;33.50;;;;;;5028551;28;20478;-67
2022/04/20 10:49:54;;;;;;;4.77;4.47;;;26.50;32.10;;;;;;5031184;28;20431;-66
2022/04/20 10:52:24;;;;;;;4.30;4.00;;;27.00;31.60;;;;;;5019757;28;21047;-67
2022/04/20 10:54:53;;;;;;;4.47;3.80;;;27.40;31.20;;;;;;5012549;28;20461;-67
2022/04/20 10:57:35;;;;;;;4.47;4.23;;;27.30;31.10;;;;;;5013995;28;20531;-67
2022/04/20 11:00:25;;;;;;;3.70;3.50;;;27.30;30.70;;;;;;5031325;28;20429;-68
2022/04/20 11:03:05;;;;;;;5.10;4.67;;;27.20;31.10;;;;;;5034341;28;20444;-67
2022/04/20 11:05:33;;;;;;;4.87;4.40;;;26.90;30.20;;;;;;5036039;28;20915;-67
2022/04/20 11:08:28;;;;;;;5.20;4.80;;;26.20;30.20;;;;;;5030663;28;20465;-69
2022/04/20 11:19:13;;;;;;;4.37;4.07;;;25.00;31.20;;;;;;5028927;28;20424;-67
2022/04/20 11:22:05;;;;;;;4.27;3.97;;;25.20;31.20;;;;;;5032411;28;20535;-68
2022/04/20 11:24:30;;;;;;;4.20;3.90;;;26.70;30.50;;;;;;5032629;28;20456;-68
2022/04/20 11:26:58;;;;;;;4.47;4.07;;;28.60;29.50;;;;;;5030573;28;20460;-68
2022/04/20 11:29:30;;;;;;;4.30;4.00;;;26.70;29.30;;;;;;5030880;28;20182;-68
2022/04/20 11:32:10;;;;;;;5.10;4.80;;;27.20;29.90;;;;;;5032107;28;20444;-68
2022/04/20 11:34:36;;;;;;;4.50;4.20;;;27.20;28.90;;;;;;5029103;28;20475;-68
2022/04/20 11:37:06;;;;;;;4.17;3.97;;;27.70;29.00;;;;;;5029352;28;20454;-68
2022/04/20 11:39:32;;;;;;;4.07;3.67;;;28.70;28.50;;;;;;5031303;28;20972;-69
2022/04/20 11:42:01;;;;;;;5.00;4.57;;;29.60;28.40;;;;;;5030562;28;20954;-68
2022/04/20 11:44:33;;;;;;;5.33;5.03;;;29.20;27.50;;;;;;5030077;28;20972;-68
2022/04/20 11:47:04;;;;;;;4.53;4.23;;;28.70;28.10;;;;;;5027075;28;20511;-68
2022/04/20 11:49:48;;;;;;;4.00;3.70;;;27.20;28.30;;;;;;5031078;28;20425;-68
2022/04/20 11:52:16;;;;;;;4.73;4.20;;;27.60;28.70;;;;;;5032037;28;20976;-68
2022/04/20 11:54:46;;;;;;;4.60;4.20;;;28.80;28.20;;;;;;5029638;28;20468;-68
2022/04/20 11:57:15;;;;;;;4.00;3.80;;;29.80;27.60;;;;;;5027882;28;20440;-68
2022/04/20 11:59:46;;;;;;;4.43;3.80;;;31.00;26.50;;;;;;5028507;28;20475;-66
2022/04/20 12:02:15;;;;;;;4.90;4.53;;;31.50;26.60;;;;;;5027247;28;21005;-66
2022/04/20 12:04:43;;;;;;;3.67;3.40;;;32.50;26.10;;;;;;5027075;28;20451;-66
2022/04/20 12:07:09;;;;;;;4.60;4.20;;;31.90;25.90;;;;;;5031106;28;20420;-65
2022/04/20 12:09:38;;;;;;;4.93;4.40;;;31.60;25.70;;;;;;5033262;28;20464;-66
2022/04/20 12:12:08;;;;;;;5.50;3.73;;;31.20;25.70;;;;;;5030260;28;20807;-66
2022/04/20 12:14:37;;;;;;;4.83;4.43;;;32.50;25.40;;;;;;5037630;28;20475;-66
2022/04/20 12:17:11;;;;;;;5.40;5.00;;;31.70;25.40;;;;;;5028141;28;20451;-66
2022/04/20 12:19:38;;;;;;;4.27;3.97;;;29.70;26.00;;;;;;5028388;28;20444;-66
2022/04/20 12:22:05;;;;;;;4.20;3.80;;;29.30;26.20;;;;;;5031052;28;20668;-66
2022/04/20 12:24:31;;;;;;;3.93;3.73;;;30.10;25.80;;;;;;5031052;28;20451;-66
2022/04/20 12:26:57;;;;;;;6.30;5.30;;;30.70;25.80;;;;;;5029456;28;21017;-66
2022/04/20 12:29:26;;;;;;;4.50;4.20;;;31.90;25.20;;;;;;5028409;28;20188;-66
2022/04/20 12:31:55;;;;;;;4.90;4.60;;;32.80;24.60;;;;;;5031094;28;20506;-66
2022/04/20 12:34:23;;;;;;;5.20;4.20;;;31.70;24.60;;;;;;5038148;28;20469;-66
2022/04/20 12:37:08;;;;;;;4.50;4.10;;;32.20;24.40;;;;;;5032300;28;20452;-66
2022/04/20 12:39:35;;;;;;;5.30;5.00;;;33.20;24.20;;;;;;5025713;28;20768;-66
2022/04/20 12:42:17;;;;;;;5.40;4.50;;;32.70;24.50;;;;;;5030726;28;20494;-65
2022/04/20 12:44:54;;;;;;;9.83;5.40;;;31.40;24.80;;;;;;5030838;28;20424;-66
2022/04/20 12:47:20;;;;;;;5.60;5.20;;;32.30;24.40;;;;;;5027668;28;20823;-66
2022/04/20 12:49:51;;;;;;;5.20;4.70;;;32.30;24.20;;;;;;5029879;28;20425;-68
2022/04/20 12:52:27;;;;;;;4.30;4.00;;;32.00;24.40;;;;;;5030575;28;20190;-67
2022/04/20 12:55:08;;;;;;;5.33;4.30;;;33.20;24.00;;;;;;5029560;28;20467;-68
2022/04/20 13:03:07;;;;;;;4.70;4.40;;;34.90;22.50;;;;;;5027645;28;20891;-67
2022/04/20 13:05:35;;;;;;;4.93;4.63;;;33.20;23.30;;;;;;5028992;28;20444;-67
2022/04/20 13:08:01;;;;;;;4.60;4.30;;;32.30;23.80;;;;;;5021408;28;20442;-67
2022/04/20 13:10:28;;;;;;;4.97;4.57;;;33.60;23.40;;;;;;5027583;28;20435;-67
2022/04/20 13:12:54;;;;;;;4.43;4.00;;;32.60;23.20;;;;;;5029684;28;20210;-67
2022/04/20 13:15:21;;;;;;;4.70;4.40;;;32.10;23.50;;;;;;5029937;28;20903;-68
2022/04/20 13:17:47;;;;;;;6.63;4.20;;;31.10;23.30;;;;;;5027068;28;20432;-67
2022/04/20 13:20:13;;;;;;;4.20;4.00;;;31.10;23.10;;;;;;5029007;28;20429;-67
2022/04/20 13:22:39;;;;;;;3.67;3.40;;;32.00;23.40;;;;;;5030393;28;20218;-67
2022/04/20 13:27:56;;;;;;;4.47;4.17;;;30.90;23.60;;;;;;5026970;28;20849;-67
2022/04/20 13:30:27;;;;;;;3.90;3.70;;;30.80;23.10;;;;;;5029050;28;20869;-69
2022/04/20 13:32:55;;;;;;;4.80;3.83;;;30.10;23.40;;;;;;5029532;28;20436;-67
2022/04/20 13:35:21;;;;;;;4.87;3.47;;;27.80;23.90;;;;;;5029838;28;20420;-67
2022/04/20 13:37:46;;;;;;;4.50;4.20;;;26.50;24.80;;;;;;5026427;28;20446;-66
2022/04/20 13:40:12;;;;;;;3.90;3.60;;;24.50;25.40;;;;;;5019963;28;20939;-67